createdAt,value
2022-10-13T00:00:35.206Z,11.50
2022-10-13T00:03:02.414Z,13.02
2022-10-13T00:05:29.398Z,13.88
2022-10-13T00:07:56.525Z,13.73
2022-10-13T00:10:23.940Z,11.73
2022-10-13T00:12:51.904Z,12.68
2022-10-13T00:15:21.865Z,10.93
2022-10-13T00:17:48.431Z,13.07
2022-10-13T00:20:15.094Z,12.15
2022-10-13T00:22:41.633Z,12.98
2022-10-13T00:25:08.995Z,11.10
2022-10-13T00:27:35.616Z,13.05
2022-10-13T00:30:04.460Z,13.40
2022-10-13T00:32:31.052Z,13.65
2022-10-13T00:34:57.687Z,14.68
2022-10-13T00:37:24.565Z,11.95
2022-10-13T00:39:51.122Z,12.43
2022-10-13T00:42:19.567Z,9.80
2022-10-13T00:45:19.635Z,9.20
2022-10-13T00:47:49.877Z,11.88
2022-10-13T00:50:19.505Z,12.55
2022-10-13T00:52:49.835Z,12.15
2022-10-13T00:55:22.160Z,12.75
2022-10-13T00:57:51.028Z,11.30
2022-10-13T01:00:18.934Z,10.07
2022-10-13T01:02:45.534Z,11.93
2022-10-13T01:05:12.083Z,14.77
2022-10-13T01:07:38.658Z,14.10
2022-10-13T01:10:06.079Z,12.50
2022-10-13T01:12:47.973Z,12.35
2022-10-13T01:15:22.353Z,14.07
2022-10-13T01:18:02.173Z,16.73
2022-10-13T01:20:50.509Z,12.23
2022-10-13T01:23:45.165Z,12.85
2022-10-13T01:26:34.499Z,13.88
2022-10-13T01:29:42.668Z,12.40
2022-10-13T01:32:14.637Z,12.35
2022-10-13T01:37:20.545Z,9.70
2022-10-13T01:39:54.938Z,17.38
2022-10-13T01:42:25.865Z,14.60
2022-10-13T01:45:00.420Z,12.18
2022-10-13T01:47:28.956Z,10.82
2022-10-13T01:49:56.662Z,15.70
2022-10-13T01:52:27.693Z,14.57
2022-10-13T01:54:54.744Z,12.50
2022-10-13T01:57:30.523Z,15.02
2022-10-13T01:59:59.731Z,16.30
2022-10-13T02:02:31.805Z,15.00
2022-10-13T02:05:08.432Z,15.15
2022-10-13T02:07:42.604Z,18.00
2022-10-13T02:10:17.561Z,13.15
2022-10-13T02:12:52.229Z,14.95
2022-10-13T02:15:24.312Z,13.77
2022-10-13T02:17:52.048Z,17.73
2022-10-13T02:20:20.325Z,13.05
2022-10-13T02:22:53.045Z,16.27
2022-10-13T02:25:19.622Z,14.45
2022-10-13T02:27:46.328Z,15.32
2022-10-13T02:30:23.226Z,15.30
2022-10-13T02:32:49.881Z,15.45
2022-10-13T02:35:16.805Z,14.10
2022-10-13T02:37:43.574Z,15.65
2022-10-13T02:40:11.157Z,16.33
2022-10-13T02:42:37.760Z,17.83
2022-10-13T02:45:04.968Z,12.68
2022-10-13T02:47:32.951Z,17.13
2022-10-13T02:50:02.400Z,17.20
2022-10-13T02:52:28.982Z,19.83
2022-10-13T02:54:55.496Z,16.98
2022-10-13T02:57:22.400Z,15.63
2022-10-13T02:59:49.488Z,16.88
2022-10-13T03:02:16.527Z,17.80
2022-10-13T03:04:44.507Z,26.23
2022-10-13T03:07:11.490Z,22.67
2022-10-13T03:09:38.240Z,17.17
2022-10-13T03:12:05.161Z,17.23
2022-10-13T03:14:31.767Z,15.93
2022-10-13T03:16:58.357Z,17.58
2022-10-13T03:19:24.890Z,15.95
2022-10-13T03:21:52.887Z,15.60
2022-10-13T03:24:19.470Z,13.15
2022-10-13T03:26:46.029Z,16.58
2022-10-13T03:29:15.434Z,13.95
2022-10-13T03:31:42.110Z,13.80
2022-10-13T03:34:08.824Z,15.93
2022-10-13T03:36:35.451Z,14.50
2022-10-13T03:39:03.490Z,18.88
2022-10-13T03:41:30.186Z,13.48
2022-10-13T03:43:56.806Z,13.55
2022-10-13T03:46:26.298Z,14.70
2022-10-13T03:48:53.237Z,14.25
2022-10-13T03:51:21.723Z,11.60
2022-10-13T03:53:49.568Z,15.00
2022-10-13T03:56:19.484Z,15.00
2022-10-13T03:58:52.588Z,13.40
2022-10-13T04:01:19.407Z,14.00
2022-10-13T04:03:46.436Z,14.38
2022-10-13T04:06:13.163Z,16.00
2022-10-13T04:08:39.782Z,14.70
2022-10-13T04:11:08.778Z,13.23
2022-10-13T04:13:40.234Z,15.80
2022-10-13T04:16:08.494Z,14.02
2022-10-13T04:18:35.412Z,14.68
2022-10-13T04:21:02.003Z,11.73
2022-10-13T04:23:28.510Z,11.73
2022-10-13T04:25:55.085Z,11.63
2022-10-13T04:28:21.671Z,16.30
2022-10-13T04:30:49.829Z,13.15
2022-10-13T04:33:16.398Z,12.63
2022-10-13T04:35:42.996Z,16.20
2022-10-13T04:38:09.571Z,15.18
2022-10-13T04:40:36.126Z,15.38
2022-10-13T04:43:03.063Z,13.77
2022-10-13T04:45:29.731Z,13.70
2022-10-13T04:47:57.611Z,12.80
2022-10-13T04:50:24.176Z,15.25
2022-10-13T04:52:59.013Z,15.27
2022-10-13T04:55:25.662Z,12.85
2022-10-13T04:57:52.162Z,14.25
2022-10-13T05:00:18.786Z,15.35
2022-10-13T05:02:45.833Z,13.02
2022-10-13T05:05:13.741Z,13.43
2022-10-13T05:07:40.242Z,13.48
2022-10-13T05:10:07.337Z,16.60
2022-10-13T05:12:34.034Z,15.35
2022-10-13T05:15:00.651Z,13.73
2022-10-13T05:17:34.865Z,15.93
2022-10-13T05:20:06.410Z,16.65
2022-10-13T05:22:34.357Z,17.55
2022-10-13T05:25:00.830Z,13.95
2022-10-13T05:27:27.393Z,13.43
2022-10-13T05:29:53.963Z,14.00
2022-10-13T05:32:20.925Z,13.38
2022-10-13T05:34:47.744Z,16.35
2022-10-13T05:37:14.310Z,17.38
2022-10-13T05:39:42.271Z,13.40
2022-10-13T05:42:08.821Z,13.35
2022-10-13T05:44:35.355Z,13.48
2022-10-13T05:47:07.223Z,12.82
2022-10-13T05:49:34.166Z,13.77
2022-10-13T05:52:06.067Z,12.95
2022-10-13T05:57:06.326Z,14.80
2022-10-13T05:59:35.511Z,11.45
2022-10-13T06:02:03.043Z,14.60
2022-10-13T06:04:34.740Z,12.35
2022-10-13T06:07:01.561Z,14.30
2022-10-13T06:09:33.371Z,12.23
2022-10-13T06:14:27.752Z,11.80
2022-10-13T06:16:54.298Z,17.42
2022-10-13T06:19:20.813Z,15.15
2022-10-13T06:21:47.409Z,12.65
2022-10-13T06:24:13.947Z,13.27
2022-10-13T06:26:40.538Z,13.52
2022-10-13T06:29:07.196Z,12.88
2022-10-13T06:31:35.578Z,14.95
2022-10-13T06:34:04.536Z,14.85
2022-10-13T06:36:31.137Z,13.48
2022-10-13T06:38:57.654Z,14.07
2022-10-13T06:41:24.275Z,14.63
2022-10-13T06:43:50.798Z,17.38
2022-10-13T06:46:17.434Z,16.55
2022-10-13T06:48:45.413Z,18.17
2022-10-13T06:51:12.250Z,14.48
2022-10-13T06:53:38.833Z,14.98
2022-10-13T06:56:07.766Z,11.38
2022-10-13T06:58:34.343Z,12.77
2022-10-13T07:01:01.055Z,14.35
2022-10-13T07:03:27.625Z,13.32
2022-10-13T07:06:00.254Z,17.67
2022-10-13T07:08:26.870Z,13.68
2022-10-13T07:10:53.492Z,14.10
2022-10-13T07:15:46.840Z,14.75
2022-10-13T07:18:13.483Z,15.23
2022-10-13T07:20:40.059Z,12.77
2022-10-13T07:23:08.076Z,15.32
2022-10-13T07:25:34.586Z,14.85
2022-10-13T07:28:01.189Z,13.55
2022-10-13T07:30:30.224Z,11.13
2022-10-13T07:32:56.837Z,13.90
2022-10-13T07:35:28.226Z,12.35
2022-10-13T07:37:57.478Z,13.40
2022-10-13T07:40:25.430Z,15.77
2022-10-13T07:42:51.997Z,11.02
2022-10-13T07:45:18.538Z,13.57
2022-10-13T07:47:45.177Z,14.30
2022-10-13T07:50:11.710Z,19.92
2022-10-13T07:52:38.295Z,14.10
2022-10-13T07:55:05.874Z,11.38
2022-10-13T07:57:33.913Z,13.50
2022-10-13T08:00:00.808Z,14.32
2022-10-13T08:02:27.418Z,16.92
2022-10-13T08:04:53.925Z,17.15
2022-10-13T08:07:20.882Z,14.60
2022-10-13T08:09:47.895Z,17.40
2022-10-13T08:12:14.553Z,16.38
2022-10-13T08:14:42.576Z,17.23
2022-10-13T08:17:09.811Z,17.65
2022-10-13T08:19:36.368Z,14.98
2022-10-13T08:22:05.526Z,13.55
2022-10-13T08:24:36.335Z,16.92
2022-10-13T08:27:03.446Z,18.63
2022-10-13T08:29:30.057Z,16.77
2022-10-13T08:31:57.974Z,16.25
2022-10-13T08:34:25.248Z,14.88
2022-10-13T08:36:52.101Z,14.18
2022-10-13T08:39:19.789Z,15.20
2022-10-13T08:41:46.584Z,14.07
2022-10-13T08:45:02.662Z,15.00
2022-10-13T08:47:18.063Z,18.67
2022-10-13T08:49:44.916Z,20.60
2022-10-13T08:52:16.615Z,13.45
2022-10-13T08:57:10.840Z,17.88
2022-10-13T08:59:37.578Z,19.13
2022-10-13T09:02:13.141Z,15.35
2022-10-13T09:04:44.026Z,14.20
2022-10-13T09:07:15.517Z,16.03
2022-10-13T09:09:42.628Z,21.30
2022-10-13T09:12:10.872Z,16.45
2022-10-13T09:14:39.454Z,22.08
2022-10-13T09:17:16.115Z,18.73
2022-10-13T09:19:42.869Z,14.63
2022-10-13T09:22:22.537Z,17.70
2022-10-13T09:25:07.748Z,16.65
2022-10-13T09:27:42.281Z,17.45
2022-10-13T09:30:25.987Z,16.38
2022-10-13T09:33:05.137Z,17.65
2022-10-13T09:35:31.776Z,19.40
2022-10-13T09:38:04.170Z,15.52
2022-10-13T09:40:31.290Z,18.17
2022-10-13T09:42:59.967Z,17.55
2022-10-13T09:45:27.480Z,18.83
2022-10-13T09:47:57.993Z,15.85
2022-10-13T09:50:27.017Z,18.40
2022-10-13T09:53:09.128Z,18.67
2022-10-13T09:55:36.618Z,18.58
2022-10-13T09:58:10.652Z,18.45
2022-10-13T10:00:39.491Z,16.92
2022-10-13T10:03:15.878Z,16.35
2022-10-13T10:05:49.277Z,20.02
2022-10-13T10:08:28.954Z,16.55
2022-10-13T10:11:03.197Z,20.98
2022-10-13T10:13:29.731Z,21.63
2022-10-13T10:16:02.536Z,16.33
2022-10-13T10:18:36.319Z,23.50
2022-10-13T10:21:08.485Z,21.23
2022-10-13T10:23:46.953Z,15.02
2022-10-13T10:26:23.178Z,21.63
2022-10-13T10:29:14.179Z,24.80
2022-10-13T10:31:53.904Z,17.90
2022-10-13T10:34:32.485Z,17.02
2022-10-13T10:37:13.682Z,16.33
2022-10-13T10:39:46.734Z,17.70
2022-10-13T10:42:33.533Z,19.30
2022-10-13T10:45:02.877Z,14.13
2022-10-13T10:47:36.759Z,19.40
2022-10-13T10:50:06.618Z,19.63
2022-10-13T10:52:45.672Z,15.13
2022-10-13T10:55:20.484Z,22.92
2022-10-13T10:57:57.820Z,16.23
2022-10-13T11:00:24.888Z,18.42
2022-10-13T11:03:00.651Z,15.93
2022-10-13T11:06:00.673Z,22.92
2022-10-13T11:08:29.512Z,20.15
2022-10-13T11:11:43.366Z,16.27
2022-10-13T11:14:30.562Z,13.95
2022-10-13T11:17:27.106Z,16.55
2022-10-13T11:19:53.989Z,15.70
2022-10-13T11:22:24.305Z,18.42
2022-10-13T11:25:04.136Z,18.33
2022-10-13T11:28:00.289Z,11.82
2022-10-13T11:30:42.403Z,17.17
2022-10-13T11:33:51.376Z,15.30
2022-10-13T11:36:51.782Z,13.80
2022-10-13T11:39:55.906Z,16.27
2022-10-13T11:42:38.786Z,14.70
2022-10-13T11:45:19.594Z,11.60
2022-10-13T11:48:04.075Z,17.17
2022-10-13T11:50:36.954Z,24.73
2022-10-13T11:53:14.564Z,15.63
2022-10-13T11:55:49.050Z,13.93
2022-10-13T11:58:18.062Z,14.65
2022-10-13T12:00:52.826Z,14.98
2022-10-13T12:03:26.288Z,15.13
2022-10-13T12:05:57.695Z,14.15
2022-10-13T12:08:27.589Z,12.10
2022-10-13T12:10:56.200Z,14.02
2022-10-13T12:13:25.518Z,13.23
2022-10-13T12:15:59.122Z,12.85
2022-10-13T12:18:27.897Z,15.48
2022-10-13T12:20:56.003Z,14.30
2022-10-13T12:23:23.190Z,13.32
2022-10-13T12:25:51.846Z,12.38
2022-10-13T12:28:20.012Z,12.57
2022-10-13T12:30:54.581Z,16.38
2022-10-13T12:33:26.620Z,17.00
2022-10-13T12:35:53.748Z,14.27
2022-10-13T12:38:22.001Z,13.20
2022-10-13T12:40:50.254Z,15.40
2022-10-13T12:43:22.626Z,10.73
2022-10-13T12:45:49.354Z,14.48
2022-10-13T12:48:29.939Z,11.45
2022-10-13T12:51:14.483Z,12.55
2022-10-13T12:53:44.468Z,13.30
2022-10-13T12:56:22.697Z,9.32
2022-10-13T12:58:50.770Z,10.23
2022-10-13T13:01:31.966Z,14.18
2022-10-13T13:04:01.429Z,10.60
2022-10-13T13:06:36.826Z,11.60
2022-10-13T13:09:23.139Z,9.88
2022-10-13T13:12:03.646Z,7.75
2022-10-13T13:14:38.889Z,7.78
2022-10-13T13:17:11.090Z,10.48
2022-10-13T13:19:38.364Z,10.93
2022-10-13T13:22:05.982Z,12.55
2022-10-13T13:24:40.151Z,10.60
2022-10-13T13:27:17.902Z,9.25
2022-10-13T13:29:46.511Z,8.23
2022-10-13T13:32:14.316Z,10.52
2022-10-13T13:34:41.180Z,10.02
2022-10-13T13:37:13.920Z,10.98
2022-10-13T13:39:40.888Z,9.77
2022-10-13T13:42:13.792Z,9.45
2022-10-13T13:44:43.118Z,9.80
2022-10-13T13:47:16.597Z,10.05
2022-10-13T13:49:46.234Z,11.70
2022-10-13T13:52:12.981Z,13.50
2022-10-13T13:54:39.597Z,11.07
2022-10-13T13:57:06.161Z,8.70
2022-10-13T13:59:33.011Z,9.52
2022-10-13T14:01:59.742Z,10.98
2022-10-13T14:04:30.178Z,9.57
2022-10-13T14:06:57.126Z,9.93
2022-10-13T14:09:23.657Z,10.93
2022-10-13T14:11:50.297Z,12.00
2022-10-13T14:14:16.821Z,12.30
2022-10-13T14:16:43.491Z,9.02
2022-10-13T14:19:10.000Z,9.18
2022-10-13T14:21:37.925Z,7.88
2022-10-13T14:24:10.590Z,9.43
2022-10-13T14:26:37.192Z,8.45
2022-10-13T14:29:03.927Z,10.98
2022-10-13T14:31:30.554Z,11.57
2022-10-13T14:33:57.080Z,11.43
2022-10-13T14:36:25.212Z,9.70
2022-10-13T14:38:53.142Z,8.57
2022-10-13T14:41:19.711Z,7.85
2022-10-13T14:43:52.222Z,10.55
2022-10-13T14:46:18.834Z,8.75
2022-10-13T14:48:45.359Z,12.48
2022-10-13T14:51:12.366Z,9.45
2022-10-13T14:53:40.621Z,9.05
2022-10-13T14:56:17.571Z,11.05
2022-10-13T14:58:50.582Z,9.25
2022-10-13T15:01:19.581Z,11.25
2022-10-13T15:03:46.462Z,9.85
2022-10-13T15:06:14.737Z,10.45
2022-10-13T15:08:42.118Z,9.82
2022-10-13T15:11:08.915Z,12.40
2022-10-13T15:13:37.512Z,12.57
2022-10-13T15:16:05.265Z,9.93
2022-10-13T15:18:32.800Z,11.85
2022-10-13T15:20:59.633Z,14.50
2022-10-13T15:23:26.504Z,10.70
2022-10-13T15:25:55.182Z,10.18
2022-10-13T15:28:22.631Z,10.32
2022-10-13T15:30:51.078Z,12.98
2022-10-13T15:33:21.342Z,11.90
2022-10-13T15:35:48.713Z,12.13
2022-10-13T15:38:15.329Z,14.27
2022-10-13T15:40:42.158Z,10.70
2022-10-13T15:43:08.764Z,12.07
2022-10-13T15:45:35.663Z,13.70
2022-10-13T15:48:06.448Z,14.57
2022-10-13T15:50:33.114Z,13.77
2022-10-13T15:52:59.692Z,12.48
2022-10-13T15:55:26.289Z,10.90
2022-10-13T15:57:52.803Z,14.73
2022-10-13T16:00:19.477Z,14.27
2022-10-13T16:02:49.744Z,13.57
2022-10-13T16:05:18.908Z,13.52
2022-10-13T16:07:45.491Z,18.42
2022-10-13T16:10:14.649Z,16.73
2022-10-13T16:12:46.840Z,13.43
2022-10-13T16:15:17.096Z,15.18
2022-10-13T16:17:43.698Z,15.32
2022-10-13T16:20:11.311Z,16.08
2022-10-13T16:22:39.252Z,15.25
2022-10-13T16:25:07.401Z,17.10
2022-10-13T16:27:33.883Z,11.85
2022-10-13T16:30:00.412Z,12.80
2022-10-13T16:32:26.918Z,19.40
2022-10-13T16:34:53.715Z,12.77
2022-10-13T16:37:20.620Z,15.35
2022-10-13T16:39:51.732Z,19.10
2022-10-13T16:42:18.572Z,13.32
2022-10-13T16:44:45.064Z,12.48
2022-10-13T16:47:17.340Z,18.98
2022-10-13T16:49:44.924Z,14.55
2022-10-13T16:52:12.194Z,13.50
2022-10-13T16:54:38.709Z,22.50
2022-10-13T16:57:06.556Z,16.42
2022-10-13T16:59:33.153Z,16.40
2022-10-13T17:01:59.666Z,15.30
2022-10-13T17:04:26.218Z,13.98
2022-10-13T17:06:52.804Z,13.85
2022-10-13T17:09:19.348Z,13.98
2022-10-13T17:11:45.857Z,14.93
2022-10-13T17:14:13.767Z,16.95
2022-10-13T17:16:40.345Z,13.55
2022-10-13T17:19:06.893Z,14.65
2022-10-13T17:21:35.888Z,14.93
2022-10-13T17:24:04.787Z,13.73
2022-10-13T17:26:32.964Z,10.90
2022-10-13T17:28:59.826Z,16.77
2022-10-13T17:31:27.848Z,16.63
2022-10-13T17:33:54.405Z,13.98
2022-10-13T17:36:22.765Z,14.60
2022-10-13T17:38:50.254Z,14.55
2022-10-13T17:41:17.684Z,14.07
2022-10-13T17:43:49.549Z,17.05
2022-10-13T17:46:36.324Z,14.15
2022-10-13T17:49:06.139Z,14.68
2022-10-13T17:51:32.626Z,17.10
2022-10-13T17:53:59.866Z,15.30
2022-10-13T17:56:26.964Z,17.02
2022-10-13T17:58:53.880Z,20.88
2022-10-13T18:01:22.300Z,18.00
2022-10-13T18:03:53.361Z,15.05
2022-10-13T18:06:31.470Z,15.82
2022-10-13T18:09:04.427Z,11.57
2022-10-13T18:11:31.452Z,14.18
2022-10-13T18:13:58.546Z,16.25
2022-10-13T18:16:25.143Z,14.13
2022-10-13T18:18:53.818Z,16.50
2022-10-13T18:21:22.212Z,12.65
2022-10-13T18:23:53.498Z,16.10
2022-10-13T18:26:20.496Z,13.35
2022-10-13T18:28:48.475Z,14.50
2022-10-13T18:31:20.259Z,13.48
2022-10-13T18:36:19.108Z,14.60
2022-10-13T18:38:46.400Z,11.82
2022-10-13T18:41:15.024Z,13.05
2022-10-13T18:43:41.646Z,17.88
2022-10-13T18:46:08.770Z,12.65
2022-10-13T18:48:35.660Z,14.13
2022-10-13T18:51:03.172Z,17.23
2022-10-13T18:53:29.769Z,15.27
2022-10-13T18:56:01.170Z,14.43
2022-10-13T18:58:29.569Z,13.10
2022-10-13T19:00:58.945Z,17.23
2022-10-13T19:03:25.646Z,12.43
2022-10-13T19:05:52.163Z,13.20
2022-10-13T19:08:18.677Z,15.63
2022-10-13T19:10:45.224Z,17.90
2022-10-13T19:13:11.819Z,17.80
2022-10-13T19:15:39.687Z,15.85
2022-10-13T19:18:06.466Z,18.48
2022-10-13T19:20:33.020Z,12.02
2022-10-13T19:23:04.198Z,19.23
2022-10-13T19:25:30.755Z,11.60
2022-10-13T19:27:57.595Z,16.58
2022-10-13T19:30:25.520Z,12.80
2022-10-13T19:32:54.546Z,12.02
2022-10-13T19:35:21.156Z,15.82
2022-10-13T19:37:47.661Z,17.05
2022-10-13T19:40:14.387Z,14.50
2022-10-13T19:42:40.900Z,11.90
2022-10-13T19:45:08.312Z,13.60
2022-10-13T19:47:34.801Z,13.25
2022-10-13T19:50:03.009Z,11.60
2022-10-13T19:52:29.535Z,9.45
2022-10-13T19:54:56.762Z,11.82
2022-10-13T19:57:23.645Z,13.93
2022-10-13T19:59:51.819Z,13.63
2022-10-13T20:02:18.322Z,12.35
2022-10-13T20:04:45.047Z,10.15
2022-10-13T20:07:12.907Z,10.73
2022-10-13T20:09:39.390Z,7.72
2022-10-13T20:12:06.134Z,9.07
2022-10-13T20:14:34.269Z,7.38
2022-10-13T20:17:00.848Z,7.40
2022-10-13T20:19:27.438Z,10.18
2022-10-13T20:21:53.930Z,10.40
2022-10-13T20:24:22.271Z,9.35
2022-10-13T20:26:49.276Z,9.20
2022-10-13T20:29:20.806Z,8.90
2022-10-13T20:31:47.331Z,6.72
2022-10-13T20:34:13.858Z,6.47
2022-10-13T20:36:40.496Z,9.10
2022-10-13T20:39:07.289Z,5.65
2022-10-13T20:41:35.358Z,7.47
2022-10-13T20:44:02.182Z,8.32
2022-10-13T20:46:31.624Z,9.80
2022-10-13T20:49:10.456Z,10.00
2022-10-13T20:51:38.510Z,6.90
2022-10-13T20:54:05.100Z,8.00
2022-10-13T20:56:31.720Z,7.07
2022-10-13T20:59:04.295Z,5.82
2022-10-13T21:01:30.987Z,11.85
2022-10-13T21:03:57.470Z,13.95
2022-10-13T21:06:25.467Z,8.15
2022-10-13T21:08:52.442Z,7.10
2022-10-13T21:11:21.032Z,5.63
2022-10-13T21:13:47.983Z,7.15
2022-10-13T21:16:19.478Z,9.18
2022-10-13T21:18:47.729Z,9.35
2022-10-13T21:21:16.420Z,5.32
2022-10-13T21:23:43.680Z,7.78
2022-10-13T21:26:11.896Z,7.68
2022-10-13T21:28:38.972Z,7.22
2022-10-13T21:31:07.439Z,6.40
2022-10-13T21:33:38.180Z,7.30
2022-10-13T21:36:05.949Z,8.30
2022-10-13T21:38:32.529Z,5.63
2022-10-13T21:40:59.085Z,10.98
2022-10-13T21:43:25.620Z,7.90
2022-10-13T21:45:52.159Z,5.88
2022-10-13T21:48:18.879Z,8.13
2022-10-13T21:50:46.846Z,8.75
2022-10-13T21:53:13.394Z,7.65
2022-10-13T21:55:39.974Z,10.23
2022-10-13T21:58:06.469Z,8.07
2022-10-13T22:00:33.437Z,7.30
2022-10-13T22:02:59.976Z,7.32
2022-10-13T22:05:26.553Z,6.03
2022-10-13T22:07:58.186Z,6.63
2022-10-13T22:10:24.756Z,9.27
2022-10-13T22:12:51.254Z,6.40
2022-10-13T22:15:17.821Z,7.78
2022-10-13T22:17:44.353Z,6.88
2022-10-13T22:20:10.905Z,7.68
2022-10-13T22:22:37.409Z,6.03
2022-10-13T22:25:06.920Z,6.85
2022-10-13T22:27:34.901Z,8.27
2022-10-13T22:30:01.542Z,5.30
2022-10-13T22:32:28.085Z,9.73
2022-10-13T22:34:54.686Z,6.28
2022-10-13T22:37:21.488Z,6.55
2022-10-13T22:39:48.216Z,7.95
2022-10-13T22:42:16.087Z,5.95
2022-10-13T22:44:42.597Z,9.23
2022-10-13T22:47:09.322Z,6.40
2022-10-13T22:49:35.878Z,5.80
2022-10-13T22:52:03.076Z,5.53
2022-10-13T22:54:29.868Z,7.80
2022-10-13T22:56:56.406Z,8.30
2022-10-13T22:59:24.338Z,7.88
2022-10-13T23:01:50.954Z,8.00
2022-10-13T23:04:17.539Z,6.43
2022-10-13T23:06:44.030Z,5.45
2022-10-13T23:09:12.658Z,6.60
2022-10-13T23:11:39.722Z,5.75
2022-10-13T23:14:07.951Z,6.55
2022-10-13T23:16:35.894Z,8.50
2022-10-13T23:19:02.574Z,5.50
2022-10-13T23:21:30.124Z,8.15
2022-10-13T23:23:57.731Z,9.23
2022-10-13T23:26:24.612Z,8.13
2022-10-13T23:28:52.407Z,8.20
2022-10-13T23:31:18.936Z,7.75
2022-10-13T23:33:46.861Z,8.95
2022-10-13T23:36:15.775Z,7.35
2022-10-13T23:38:44.097Z,7.43
2022-10-13T23:41:13.141Z,8.15
2022-10-13T23:43:40.492Z,6.60
2022-10-13T23:46:07.991Z,7.90
2022-10-13T23:48:34.546Z,9.38
2022-10-13T23:51:07.578Z,6.32
2022-10-13T23:53:35.567Z,7.07
2022-10-13T23:56:02.347Z,6.97
2022-10-13T23:58:29.500Z,6.03
